Time;durP1;ratioP1;P1;durP2;ratioP2;P2;SDS_P1;SDS_P2;PMS_P1;PMS_P2;Temp;Humidity;BMP_temperature;BMP_pressure;BME280_temperature;BME280_humidity;BME280_pressure;Samples;Min_cycle;Max_cycle;Signal;HPM_P1;HPM_P2
2021/04/28 00:04:19;;;;;;;10.15;4.65;;;;;;;7.97;49.12;99114.47;20811287;28;20141;-73
2021/04/28 00:14:20;;;;;;;13.70;5.93;;;;;;;8.01;48.55;99114.19;20827556;28;20050;-74
2021/04/28 00:24:21;;;;;;;10.40;4.78;;;;;;;7.99;48.46;99105.63;20816327;28;20049;-73
2021/04/28 00:34:22;;;;;;;12.05;4.80;;;;;;;7.89;48.34;99098.50;20825911;28;20049;-73
2021/04/28 00:44:23;;;;;;;13.73;5.13;;;;;;;7.88;48.11;99092.44;20808298;28;20055;-74
2021/04/28 00:54:39;;;;;;;10.17;5.27;;;;;;;7.68;48.54;99083.28;20802404;28;20064;-74
2021/04/28 01:04:42;;;;;;;13.07;4.50;;;;;;;7.61;48.60;99074.22;20823536;28;20053;-72
2021/04/28 01:14:43;;;;;;;10.30;5.18;;;;;;;7.53;49.01;99066.03;20823961;28;20045;-74
2021/04/28 01:24:45;;;;;;;11.35;4.43;;;;;;;7.40;49.36;99054.75;20816774;28;20060;-73
2021/04/28 01:34:49;;;;;;;10.43;4.55;;;;;;;7.20;50.34;99070.75;20823311;28;20184;-73
2021/04/28 01:44:50;;;;;;;9.02;4.55;;;;;;;7.02;51.24;99072.72;20823641;28;20463;-74
2021/04/28 01:54:51;;;;;;;12.27;4.80;;;;;;;6.89;51.93;99069.19;20813912;28;20566;-74
2021/04/28 02:04:53;;;;;;;8.70;4.63;;;;;;;6.79;52.50;99068.06;20821099;28;20121;-74
2021/04/28 02:14:55;;;;;;;9.02;4.85;;;;;;;6.67;52.81;99058.41;20820163;28;20096;-74
2021/04/28 02:24:56;;;;;;;11.60;5.00;;;;;;;6.61;53.18;99054.41;20808437;28;20056;-74
2021/04/28 02:34:57;;;;;;;9.32;4.95;;;;;;;6.42;54.17;99044.25;20818866;28;20054;-74
2021/04/28 02:45:00;;;;;;;10.77;5.00;;;;;;;6.41;54.60;99052.13;20818958;28;20057;-74
2021/04/28 02:55:04;;;;;;;10.93;5.47;;;;;;;6.16;56.05;99049.28;20793653;28;20095;-74
2021/04/28 03:05:07;;;;;;;10.32;5.10;;;;;;;5.94;57.16;99029.75;20800276;28;20517;-74
2021/04/28 03:15:10;;;;;;;11.05;5.45;;;;;;;5.78;58.51;99035.88;20818380;28;20489;-75
2021/04/28 03:25:12;;;;;;;12.32;6.10;;;;;;;5.74;58.56;99034.41;20809521;28;20049;-74
2021/04/28 03:35:13;;;;;;;10.05;5.40;;;;;;;5.51;59.92;99048.63;20830603;28;20052;-74
2021/04/28 03:45:15;;;;;;;12.63;5.50;;;;;;;5.36;60.89;99044.28;20831895;28;20046;-74
2021/04/28 03:55:16;;;;;;;11.82;5.13;;;;;;;5.15;62.50;99057.50;20823149;28;20133;-74
2021/04/28 04:05:18;;;;;;;11.75;5.30;;;;;;;5.06;63.25;99063.19;20811947;28;20049;-74
2021/04/28 04:15:19;;;;;;;11.32;4.93;;;;;;;4.83;64.50;99070.47;20805709;28;20188;-74
2021/04/28 04:25:20;;;;;;;12.18;5.53;;;;;;;4.93;64.17;99088.06;20796351;28;20060;-75
2021/04/28 04:35:21;;;;;;;11.23;5.63;;;;;;;5.14;63.46;99083.50;20827191;28;20563;-75
2021/04/28 04:45:22;;;;;;;13.00;6.25;;;;;;;5.41;62.83;99078.59;20826881;28;20049;-75
2021/04/28 04:55:23;;;;;;;11.52;6.13;;;;;;;5.72;61.61;99083.78;20818541;28;20041;-74
2021/04/28 05:05:25;;;;;;;13.18;6.85;;;;;;;6.01;61.00;99085.63;20826225;28;20049;-74
2021/04/28 05:15:26;;;;;;;16.83;7.10;;;;;;;6.32;60.08;99095.09;20824858;28;20057;-74
2021/04/28 05:25:27;;;;;;;17.93;6.87;;;;;;;6.60;59.24;99099.53;20816652;28;20053;-75
2021/04/28 05:35:28;;;;;;;11.23;6.43;;;;;;;6.68;59.43;99097.31;20823055;28;20186;-75
2021/04/28 05:45:29;;;;;;;15.30;6.95;;;;;;;6.92;59.11;99101.97;20824379;28;20053;-72
2021/04/28 05:55:30;;;;;;;13.98;7.40;;;;;;;7.18;59.34;99101.22;20814122;28;20046;-73
2021/04/28 06:05:31;;;;;;;20.73;7.10;;;;;;;7.46;60.29;99110.78;20817574;23;20045;-69
2021/04/28 06:15:32;;;;;;;12.32;6.88;;;;;;;7.65;58.49;99101.72;20805032;28;20052;-70
2021/04/28 06:25:33;;;;;;;15.77;7.55;;;;;;;7.89;58.89;99093.28;20662233;28;20105;-69
2021/04/28 06:35:34;;;;;;;12.48;7.25;;;;;;;8.08;59.33;99099.81;20664206;28;20511;-68
2021/04/28 06:45:35;;;;;;;14.10;7.90;;;;;;;8.33;58.36;99093.84;20705747;28;20050;-70
2021/04/28 06:55:36;;;;;;;17.20;9.82;;;;;;;8.49;57.22;99093.69;20708889;28;20046;-70
2021/04/28 07:05:37;;;;;;;15.43;8.13;;;;;;;8.76;55.66;99089.22;20716936;28;20042;-68
2021/04/28 07:15:39;;;;;;;14.02;8.45;;;;;;;9.02;56.96;99100.50;20720604;28;20058;-70
2021/04/28 07:25:40;;;;;;;15.18;8.38;;;;;;;9.29;54.58;99098.59;20727954;28;20060;-70
2021/04/28 07:35:41;;;;;;;15.25;8.85;;;;;;;9.78;55.50;99102.97;20726789;28;20054;-70
2021/04/28 07:46:14;;;;;;;14.30;9.13;;;;;;;10.01;54.00;99104.75;21890957;23;20044;-70
2021/04/28 07:56:15;;;;;;;14.55;8.63;;;;;;;10.36;52.71;99090.91;20725286;28;20058;-69
2021/04/28 08:06:16;;;;;;;21.13;8.90;;;;;;;11.03;51.24;99089.25;20734751;28;20511;-70
2021/04/28 08:16:21;;;;;;;16.52;8.48;;;;;;;11.21;50.40;99090.47;20743590;28;20081;-69
2021/04/28 08:26:23;;;;;;;15.15;8.60;;;;;;;11.66;49.89;99096.50;20746912;28;20080;-69
2021/04/28 08:36:23;;;;;;;17.02;8.02;;;;;;;12.24;48.69;99087.41;20732584;28;20038;-69
2021/04/28 08:46:24;;;;;;;16.05;8.77;;;;;;;12.85;47.92;99085.75;20721008;28;20054;-71
2021/04/28 08:56:25;;;;;;;24.25;9.48;;;;;;;13.25;45.18;99075.34;20740517;28;20132;-69
2021/04/28 09:06:37;;;;;;;17.77;9.68;;;;;;;13.68;45.53;99069.81;20737269;28;20052;-69
2021/04/28 09:16:44;;;;;;;25.85;10.40;;;;;;;14.22;43.81;99072.91;20738880;28;20448;-69
2021/04/28 09:26:45;;;;;;;21.83;10.25;;;;;;;14.63;42.04;99066.53;20744835;28;20047;-69
2021/04/28 09:36:46;;;;;;;19.85;10.23;;;;;;;14.85;42.53;99064.41;20719174;28;20049;-70
2021/04/28 09:47:00;;;;;;;18.85;10.45;;;;;;;14.76;41.58;99051.25;20739681;28;20708;-70
2021/04/28 09:57:02;;;;;;;19.65;11.65;;;;;;;15.22;41.30;99043.34;20739440;28;20053;-70
2021/04/28 10:07:05;;;;;;;21.50;10.48;;;;;;;15.38;39.71;99032.16;20725634;28;20041;-71
2021/04/28 10:17:08;;;;;;;18.77;10.63;;;;;;;16.31;39.26;99028.31;20731303;28;20506;-70
2021/04/28 10:27:13;;;;;;;23.08;11.05;;;;;;;16.77;37.76;99022.72;20733496;28;20584;-70
2021/04/28 10:37:15;;;;;;;19.80;11.30;;;;;;;17.14;36.96;99018.97;20734568;28;20429;-70
2021/04/28 10:47:38;;;;;;;18.15;9.82;;;;;;;17.51;38.04;99003.56;20732206;28;20428;-68
2021/04/28 10:57:40;;;;;;;20.90;10.20;;;;;;;17.90;37.99;98991.44;20744442;28;20054;-67
2021/04/28 11:07:44;;;;;;;22.98;10.48;;;;;;;17.39;36.24;98973.09;20735880;28;20406;-68
2021/04/28 11:17:45;;;;;;;23.27;9.60;;;;;;;18.25;35.15;98965.59;20735791;28;20108;-68
2021/04/28 11:27:50;;;;;;;18.73;9.68;;;;;;;18.38;32.61;98958.00;20706183;28;20509;-67
2021/04/28 11:38:06;;;;;;;18.70;9.75;;;;;;;18.83;34.17;98951.28;20717701;28;20121;-68
2021/04/28 11:48:24;;;;;;;20.27;10.25;;;;;;;18.94;29.51;98932.34;20720886;28;20537;-68
2021/04/28 11:58:29;;;;;;;18.90;9.13;;;;;;;19.01;30.40;98920.03;20750926;28;20045;-68
2021/04/28 12:08:30;;;;;;;14.63;9.30;;;;;;;18.62;30.44;98915.56;20748174;28;20042;-68
2021/04/28 12:18:32;;;;;;;15.02;8.52;;;;;;;18.79;30.23;98898.59;20748923;28;20140;-67
2021/04/28 12:28:48;;;;;;;23.33;8.43;;;;;;;19.27;29.42;98902.00;20773300;28;20049;-68
2021/04/28 12:38:51;;;;;;;17.88;9.02;;;;;;;19.97;27.98;98896.53;20723957;28;20037;-68
2021/04/28 12:49:01;;;;;;;19.17;8.38;;;;;;;19.94;27.69;98889.75;20714502;28;20580;-67
2021/04/28 12:59:14;;;;;;;13.05;6.47;;;;;;;19.81;28.33;98870.94;20766115;28;20042;-68
2021/04/28 13:09:15;;;;;;;7.25;3.80;;;;;;;20.71;25.38;98857.56;20744302;28;20076;-68
2021/04/28 13:19:27;;;;;;;15.45;4.53;;;;;;;21.25;25.72;98820.75;20749902;28;20045;-68
2021/04/28 13:29:54;;;;;;;7.50;3.20;;;;;;;21.69;25.42;98832.00;20784430;28;20069;-68
2021/04/28 13:40:10;;;;;;;7.30;3.85;;;;;;;21.53;24.50;98820.84;20739721;28;20548;-68
2021/04/28 13:50:12;;;;;;;11.75;4.30;;;;;;;21.34;24.92;98819.63;20742338;28;20069;-67
2021/04/28 14:00:15;;;;;;;5.85;3.35;;;;;;;21.07;25.96;98812.38;20734197;28;20047;-69
2021/04/28 14:10:16;;;;;;;6.85;3.78;;;;;;;21.03;25.54;98809.25;20715038;28;20445;-68
2021/04/28 14:20:17;;;;;;;9.20;3.80;;;;;;;20.63;25.90;98801.81;20750334;28;20045;-67
2021/04/28 14:30:21;;;;;;;6.70;3.20;;;;;;;20.62;26.29;98794.88;20753076;28;20045;-68
2021/04/28 14:40:22;;;;;;;11.17;4.93;;;;;;;20.20;26.99;98793.69;20738410;28;20042;-68
2021/04/28 14:50:24;;;;;;;8.25;3.58;;;;;;;19.88;27.20;98783.41;20735918;28;20121;-67
2021/04/28 15:00:26;;;;;;;5.97;3.13;;;;;;;19.51;27.79;98773.66;20711951;28;20045;-67
2021/04/28 15:10:27;;;;;;;9.88;3.80;;;;;;;19.55;28.01;98767.81;20736381;28;20045;-67
2021/04/28 15:20:28;;;;;;;10.68;4.07;;;;;;;19.51;28.20;98773.66;20747427;28;20050;-69
2021/04/28 15:30:29;;;;;;;5.95;3.28;;;;;;;19.30;28.85;98773.47;20750719;28;20543;-68
2021/04/28 15:40:31;;;;;;;8.73;3.47;;;;;;;19.07;29.71;98779.63;20733107;28;20417;-68
2021/04/28 15:50:33;;;;;;;10.48;3.58;;;;;;;19.03;29.64;98767.72;20755933;28;20100;-68
2021/04/28 16:00:34;;;;;;;6.78;3.60;;;;;;;19.13;29.71;98763.00;20756008;28;20053;-68
2021/04/28 16:10:35;;;;;;;10.05;4.18;;;;;;;18.96;30.88;98772.06;20750071;28;20081;-67
2021/04/28 16:20:36;;;;;;;8.52;3.65;;;;;;;18.48;33.72;98773.16;20714800;28;20568;-68
2021/04/28 16:30:37;;;;;;;8.68;3.65;;;;;;;18.36;34.76;98785.94;20772497;28;20724;-69
2021/04/28 16:40:38;;;;;;;6.95;3.10;;;;;;;18.06;35.76;98815.84;20746649;28;20081;-68
2021/04/28 16:50:39;;;;;;;6.00;3.28;;;;;;;17.46;39.86;98840.03;20737232;28;20045;-68
2021/04/28 17:00:40;;;;;;;5.93;3.17;;;;;;;16.72;44.93;98866.47;20743371;28;20457;-68
2021/04/28 17:10:41;;;;;;;7.47;3.50;;;;;;;16.27;47.86;98857.00;20728023;28;20057;-68
2021/04/28 17:20:42;;;;;;;7.18;3.05;;;;;;;15.94;50.55;98860.44;20708806;28;20046;-67
2021/04/28 17:30:43;;;;;;;5.47;2.75;;;;;;;15.62;51.68;98886.56;20744564;28;20050;-68
2021/04/28 17:40:45;;;;;;;9.15;3.25;;;;;;;15.34;53.66;98883.97;20721762;28;20131;-68
2021/04/28 17:50:46;;;;;;;7.07;3.60;;;;;;;14.94;59.43;98865.91;20738518;28;20062;-67
2021/04/28 18:00:47;;;;;;;7.85;3.33;;;;;;;14.43;60.28;98863.00;20733323;28;20461;-68
2021/04/28 18:10:48;;;;;;;7.15;2.97;;;;;;;14.26;63.34;98906.69;20736952;28;20401;-67
2021/04/28 18:20:50;;;;;;;5.80;2.65;;;;;;;13.98;63.13;98907.56;20727132;28;20058;-67
2021/04/28 18:30:52;;;;;;;9.23;3.42;;;;;;;13.65;69.00;98920.22;20738433;28;20058;-66
2021/04/28 18:40:54;;;;;;;6.65;3.67;;;;;;;13.25;74.25;98930.84;20739953;28;20489;-68
2021/04/28 18:50:56;;;;;;;7.78;3.80;;;;;;;13.09;75.26;98945.41;20733393;28;20050;-68
2021/04/28 19:00:57;;;;;;;8.45;4.25;;;;;;;12.98;80.02;98951.59;20755064;28;20056;-70
2021/04/28 19:10:58;;;;;;;14.13;5.10;;;;;;;12.52;87.30;98957.38;20751340;28;20100;-68
2021/04/28 19:21:00;;;;;;;9.73;5.03;;;;;;;12.26;92.71;98971.84;20754260;28;20041;-68
2021/04/28 19:31:03;;;;;;;10.48;5.97;;;;;;;12.27;93.41;98979.59;20750322;28;20050;-68
2021/04/28 19:41:05;;;;;;;9.63;5.72;;;;;;;12.32;97.82;98982.66;20748838;28;20077;-68
2021/04/28 19:51:06;;;;;;;10.32;6.40;;;;;;;12.26;100.00;98982.34;20747964;28;20133;-68
2021/04/28 20:01:10;;;;;;;11.93;6.53;;;;;;;12.17;100.00;98980.50;20747561;28;20052;-68
2021/04/28 20:11:11;;;;;;;12.50;7.18;;;;;;;12.06;100.00;98997.13;20736700;28;20041;-70
2021/04/28 20:21:13;;;;;;;11.63;7.13;;;;;;;11.97;100.00;98992.63;20724233;28;20096;-68
2021/04/28 20:31:14;;;;;;;12.77;6.85;;;;;;;11.59;100.00;98987.84;20745672;28;20096;-70
2021/04/28 20:41:16;;;;;;;10.82;7.15;;;;;;;11.51;100.00;98975.38;20743790;28;20046;-68
2021/04/28 20:51:17;;;;;;;11.10;7.20;;;;;;;11.32;100.00;98969.97;20737676;28;20547;-68
2021/04/28 21:01:26;;;;;;;12.18;6.70;;;;;;;11.46;100.00;98982.78;20742781;28;20046;-69
2021/04/28 21:11:30;;;;;;;11.93;7.30;;;;;;;11.53;100.00;98977.88;20715571;28;20390;-69
2021/04/28 21:21:32;;;;;;;13.18;8.00;;;;;;;11.43;100.00;98974.31;20708776;28;20046;-70
2021/04/28 21:31:33;;;;;;;10.07;6.57;;;;;;;11.43;100.00;98972.53;20723142;28;20042;-70
2021/04/28 21:41:35;;;;;;;12.68;6.78;;;;;;;11.47;100.00;98967.91;20706414;28;20053;-71
2021/04/28 21:51:37;;;;;;;13.57;7.85;;;;;;;11.44;100.00;98976.81;20718866;28;20041;-70
2021/04/28 22:01:38;;;;;;;13.48;9.10;;;;;;;11.48;100.00;98970.38;20739685;28;20548;-68
2021/04/28 22:11:39;;;;;;;15.23;9.98;;;;;;;11.43;100.00;98975.16;20754544;28;20152;-70
2021/04/28 22:21:41;;;;;;;17.52;11.63;;;;;;;11.41;100.00;98973.63;20729395;28;20413;-70
2021/04/28 22:31:42;;;;;;;19.08;12.13;;;;;;;11.43;100.00;98969.06;20820329;28;20049;-69
2021/04/28 22:41:44;;;;;;;19.10;13.35;;;;;;;11.37;100.00;98961.75;20820561;28;20046;-71
2021/04/28 22:51:45;;;;;;;21.65;13.20;;;;;;;11.34;100.00;98951.50;20808245;28;20124;-69
2021/04/28 23:01:50;;;;;;;20.45;12.88;;;;;;;11.13;100.00;98965.34;20819992;28;20041;-70
2021/04/28 23:11:51;;;;;;;21.02;12.98;;;;;;;11.05;100.00;98972.16;20817221;28;20045;-67
2021/04/28 23:21:53;;;;;;;16.67;10.82;;;;;;;10.96;100.00;98951.94;20803497;28;20038;-69
2021/04/28 23:31:54;;;;;;;14.13;10.23;;;;;;;11.11;100.00;98941.09;20816851;28;20045;-68
2021/04/28 23:41:55;;;;;;;16.67;10.82;;;;;;;11.14;100.00;98951.31;20817516;28;20069;-69
2021/04/28 23:51:58;;;;;;;16.88;11.70;;;;;;;11.05;100.00;98951.19;20815314;28;20108;-69
